createdAt,value
2022-09-14T07:03:06.014Z,2.35714
2022-09-14T07:04:06.030Z,3.71429
2022-09-14T07:05:06.038Z,4
2022-09-14T07:06:06.084Z,3.64286
2022-09-14T07:07:06.112Z,3.35714
2022-09-14T07:08:10.149Z,3.92857
2022-09-14T07:09:06.185Z,3.35714
2022-09-14T07:10:06.220Z,3.14286
2022-09-14T07:11:06.289Z,3.5
2022-09-14T07:12:06.294Z,3.42857
2022-09-14T07:13:06.326Z,2.92857
2022-09-14T07:14:06.359Z,3.21429
2022-09-14T07:15:06.388Z,3
2022-09-14T07:16:06.446Z,3
2022-09-14T07:17:06.465Z,3.35714
2022-09-14T07:18:06.500Z,3.14286
2022-09-14T07:19:06.571Z,3.42857
2022-09-14T07:20:06.558Z,3.42857
2022-09-14T07:21:06.595Z,3.14286
2022-09-14T07:22:06.634Z,4.21429
2022-09-14T07:23:06.674Z,3.21429
2022-09-14T07:24:06.753Z,3
2022-09-14T07:25:06.738Z,3.21429
2022-09-14T07:26:06.776Z,2.92857
2022-09-14T07:27:06.819Z,2.85714
2022-09-14T07:28:06.853Z,3
2022-09-14T07:29:06.926Z,3
2022-09-14T07:30:06.925Z,2.85714
2022-09-14T07:31:07.032Z,3.21429
2022-09-14T07:32:07.006Z,3
2022-09-14T07:33:07.045Z,2.92857
2022-09-14T07:34:07.103Z,3
2022-09-14T07:35:07.114Z,3.14286
2022-09-14T07:36:07.153Z,2.92857
2022-09-14T07:37:07.188Z,2.85714
2022-09-14T07:38:07.220Z,3.42857
2022-09-14T07:39:07.259Z,3.35714
2022-09-14T07:40:07.330Z,3.14286
2022-09-14T07:41:07.320Z,3.14286
2022-09-14T07:42:07.355Z,3.14286
2022-09-14T07:43:07.395Z,3.14286
2022-09-14T07:44:07.470Z,2.92857
2022-09-14T07:45:07.476Z,3
2022-09-14T07:46:07.674Z,3.21429
2022-09-14T07:47:07.540Z,3.92857
2022-09-14T07:48:07.574Z,2.64286
2022-09-14T07:49:07.646Z,3.14286
2022-09-14T07:50:07.637Z,2.92857
2022-09-14T07:51:07.679Z,2.85714
2022-09-14T07:52:07.711Z,2.92857
2022-09-14T07:53:07.748Z,2.71429
2022-09-14T07:54:07.806Z,2.64286
2022-09-14T07:55:07.814Z,2.42857
2022-09-14T07:56:07.852Z,2.42857
2022-09-14T07:57:07.918Z,2.64286
2022-09-14T07:58:07.919Z,2.42857
2022-09-14T07:59:33.569Z,2.92857
2022-09-14T07:59:36.476Z,2.85714
2022-09-14T08:10:12.585Z,2.85714
2022-09-14T08:11:12.621Z,2.71429
2022-09-14T08:12:12.653Z,2.85714
2022-09-14T08:13:12.694Z,2.64286
2022-09-14T08:14:12.723Z,3.21429
2022-09-14T08:15:12.757Z,2.5
2022-09-14T08:16:12.827Z,2.71429
2022-09-14T08:17:12.831Z,2.42857
2022-09-14T08:18:12.858Z,2.42857
2022-09-14T08:19:12.900Z,2.5
2022-09-14T08:20:12.938Z,2.35714
2022-09-14T08:21:12.966Z,2.64286
2022-09-14T08:22:13.008Z,2.71429
2022-09-14T08:23:13.051Z,2.64286
2022-09-14T08:24:13.082Z,2.5
2022-09-14T08:25:13.123Z,2.71429
2022-09-14T08:26:13.156Z,2.64286
2022-09-14T08:27:16.628Z,2.35714
2022-09-14T08:28:13.227Z,2.21429
2022-09-14T08:29:13.264Z,2.14286
2022-09-14T08:30:13.302Z,2.85714
2022-09-14T08:31:13.412Z,2.85714
2022-09-14T08:32:13.378Z,2.85714
2022-09-14T08:33:13.411Z,2.71429
2022-09-14T08:34:13.441Z,2.5
2022-09-14T08:35:13.502Z,2.42857
2022-09-14T08:36:13.519Z,2.42857
2022-09-14T08:37:13.556Z,2.5
2022-09-14T08:38:13.598Z,2.42857
2022-09-14T08:39:13.639Z,2.42857
2022-09-14T08:40:13.765Z,2.64286
2022-09-14T08:41:13.708Z,2.71429
2022-09-14T08:42:13.749Z,2.92857
2022-09-14T08:43:13.792Z,2.35714
2022-09-14T08:44:13.819Z,2.35714
2022-09-14T08:45:13.858Z,2.64286
2022-09-14T08:46:13.919Z,2.64286
2022-09-14T08:47:13.930Z,2.64286
2022-09-14T08:48:13.971Z,2.71429
2022-09-14T08:49:14.010Z,2.5
2022-09-14T08:50:14.049Z,2.64286
2022-09-14T08:51:14.080Z,2.42857
2022-09-14T08:52:14.117Z,2.64286
2022-09-14T08:53:14.144Z,2.5
2022-09-14T08:54:14.197Z,2.5
2022-09-14T08:55:14.209Z,2.5
2022-09-14T08:56:14.246Z,2.85714
2022-09-14T08:57:14.276Z,2.71429
2022-09-14T08:58:14.312Z,2.42857
2022-09-14T08:59:14.347Z,2.42857
2022-09-14T09:00:14.371Z,2.42857
2022-09-14T09:01:14.427Z,2.21429
2022-09-14T09:02:14.440Z,2.21429
2022-09-14T09:03:14.471Z,2.71429
2022-09-14T09:04:14.596Z,2.5
2022-09-14T09:05:14.540Z,2.71429
2022-09-14T09:06:16.211Z,2.21429
2022-09-14T09:07:14.602Z,2.5
2022-09-14T09:08:14.635Z,2.21429
2022-09-14T09:09:14.667Z,2.21429
2022-09-14T09:10:14.740Z,2.85714
2022-09-14T09:11:14.739Z,2.21429
2022-09-14T09:12:14.779Z,2.42857
2022-09-14T09:13:14.812Z,2.5
2022-09-14T09:14:18.288Z,2.35714
2022-09-14T09:15:14.885Z,2.42857
2022-09-14T09:16:14.994Z,2.21429
2022-09-14T09:17:14.965Z,2.42857
2022-09-14T09:18:14.992Z,2.5
2022-09-14T09:19:15.032Z,2.5
2022-09-14T09:20:15.072Z,2.35714
2022-09-14T09:21:15.103Z,2.35714
2022-09-14T09:22:15.135Z,2.35714
2022-09-14T09:23:15.170Z,2.35714
2022-09-14T09:24:15.203Z,2.64286
2022-09-14T09:25:15.228Z,2.21429
2022-09-14T09:26:15.264Z,2.5
2022-09-14T09:27:15.303Z,2.21429
2022-09-14T09:28:15.331Z,2.21429
2022-09-14T09:29:15.365Z,2.5
2022-09-14T09:30:15.490Z,2.35714
2022-09-14T09:31:15.475Z,2.5
2022-09-14T09:32:15.462Z,2.21429
2022-09-14T09:33:15.496Z,2.42857
2022-09-14T09:34:15.551Z,2.5
2022-09-14T09:35:15.572Z,2.71429
2022-09-14T09:36:15.608Z,2.21429
2022-09-14T09:37:15.647Z,2.21429
2022-09-14T09:38:15.688Z,2.85714
2022-09-14T09:39:15.726Z,2.64286
2022-09-14T09:40:15.831Z,2.35714
2022-09-14T09:41:15.802Z,2.35714
2022-09-14T09:42:15.836Z,2.35714
2022-09-14T09:43:28.722Z,2.5
2022-09-14T09:44:15.903Z,2.71429
2022-09-14T09:45:15.958Z,3.64286
2022-09-14T09:46:16.046Z,2.71429
2022-09-14T09:47:16.020Z,2.71429
2022-09-14T09:48:16.057Z,2.35714
2022-09-14T09:49:16.089Z,2.5
2022-09-14T09:50:16.119Z,2
2022-09-14T09:51:17.424Z,2.21429
2022-09-14T09:52:16.193Z,2.5
2022-09-14T09:53:16.227Z,2.35714
2022-09-14T09:54:16.261Z,2.42857
2022-09-14T09:55:16.285Z,2.71429
2022-09-14T09:56:16.312Z,2.35714
2022-09-14T09:57:16.342Z,2.35714
2022-09-14T09:58:16.380Z,2.5
2022-09-14T09:59:16.422Z,2.14286
2022-09-14T10:00:16.453Z,2.42857
2022-09-14T10:01:16.520Z,2.35714
2022-09-14T10:02:16.586Z,2.5
2022-09-14T10:03:16.564Z,2.64286
2022-09-14T10:04:16.593Z,2.5
2022-09-14T10:05:16.629Z,2.14286
2022-09-14T10:06:16.660Z,2.64286
2022-09-14T10:07:16.704Z,2.5
2022-09-14T10:08:16.745Z,2.35714
2022-09-14T10:09:16.786Z,2.42857
2022-09-14T10:10:16.828Z,2.85714
2022-09-14T10:11:16.861Z,2.71429
2022-09-14T10:12:16.903Z,2.42857
2022-09-14T10:13:16.942Z,2.85714
2022-09-14T10:14:16.981Z,2.5
2022-09-14T10:15:17.020Z,2.35714
2022-09-14T10:16:17.165Z,2.5
2022-09-14T10:17:17.099Z,2.35714
2022-09-14T10:18:17.142Z,2.71429
2022-09-14T10:19:17.167Z,2.71429
2022-09-14T10:20:17.205Z,2.42857
2022-09-14T10:21:17.242Z,2.42857
2022-09-14T10:22:17.669Z,2
2022-09-14T10:23:17.315Z,2.64286
2022-09-14T10:24:17.348Z,2.5
2022-09-14T10:25:17.389Z,2.35714
2022-09-14T10:26:17.430Z,2.42857
2022-09-14T10:27:17.466Z,3.21429
2022-09-14T10:28:17.505Z,3.35714
2022-09-14T10:29:17.537Z,2.5
2022-09-14T10:30:17.576Z,2.64286
2022-09-14T10:31:17.672Z,2.42857
2022-09-14T10:32:17.666Z,2.42857
2022-09-14T10:33:17.684Z,1.92857
2022-09-14T10:34:17.726Z,2
2022-09-14T10:35:17.756Z,2
2022-09-14T10:36:17.793Z,2.64286
2022-09-14T10:37:17.832Z,2.42857
2022-09-14T10:38:17.861Z,2.92857
2022-09-14T10:39:17.902Z,2.35714
2022-09-14T10:40:17.962Z,2.42857
2022-09-14T10:41:17.969Z,2.14286
2022-09-14T10:42:18.005Z,2.14286
2022-09-14T10:43:18.038Z,2.64286
2022-09-14T10:44:18.077Z,3.35714
2022-09-14T10:45:18.115Z,2.35714
2022-09-14T10:46:18.224Z,2.64286
2022-09-14T10:47:18.189Z,2.92857
2022-09-14T10:48:18.221Z,3.21429
2022-09-14T10:49:18.259Z,2.35714
2022-09-14T10:50:18.305Z,2.5
2022-09-14T10:51:18.347Z,2.42857
2022-09-14T10:52:18.392Z,2.71429
2022-09-14T10:53:18.440Z,2.35714
2022-09-14T10:54:18.452Z,2.71429
2022-09-14T10:55:18.482Z,2.85714
2022-09-14T10:56:18.521Z,3
2022-09-14T10:57:18.559Z,2.5
2022-09-14T10:58:22.487Z,2.64286
2022-09-14T10:59:18.632Z,2.85714
2022-09-14T11:00:18.671Z,2.85714
2022-09-14T11:01:18.735Z,3.35714
2022-09-14T11:02:18.880Z,3.42857
2022-09-14T11:03:18.777Z,2.85714
2022-09-14T11:04:18.822Z,2.71429
2022-09-14T11:05:18.847Z,2.85714
2022-09-14T11:11:01.574Z,2.14286
2022-09-14T11:12:01.617Z,2.64286
2022-09-14T11:13:01.650Z,2.35714
2022-09-14T11:14:01.688Z,2.85714
2022-09-14T11:15:01.734Z,2.5
2022-09-14T11:16:01.863Z,2.42857
2022-09-14T11:17:01.812Z,2.92857
2022-09-14T11:18:01.848Z,2.35714
2022-09-14T11:19:01.870Z,2.21429
2022-09-14T11:20:01.911Z,2.85714
2022-09-14T11:21:01.950Z,2.21429
2022-09-14T11:22:01.990Z,2.42857
2022-09-14T11:23:02.023Z,2.21429
2022-09-14T11:24:02.061Z,2.5
2022-09-14T11:25:02.099Z,2.64286
2022-09-14T11:26:02.127Z,2.35714
2022-09-14T11:27:02.163Z,2.42857
2022-09-14T11:28:02.198Z,2.92857
2022-09-14T11:29:02.239Z,2.64286
2022-09-14T11:30:02.269Z,2.85714
2022-09-14T11:31:02.326Z,2.71429
2022-09-14T11:32:19.850Z,2.42857
2022-09-14T11:33:02.368Z,2.21429
2022-09-14T11:34:02.400Z,2.35714
2022-09-14T11:35:02.451Z,2.5
2022-09-14T11:36:02.476Z,2.35714
2022-09-14T11:37:02.514Z,2.64286
2022-09-14T11:38:02.548Z,2.35714
2022-09-14T11:39:06.711Z,2.14286
2022-09-14T11:40:02.649Z,2.21429
2022-09-14T11:41:02.674Z,2.42857
2022-09-14T11:42:02.696Z,2.92857
2022-09-14T11:43:02.743Z,2.64286
2022-09-14T11:44:02.772Z,2.21429
2022-09-14T11:45:02.803Z,2.35714
2022-09-14T11:46:02.894Z,2.85714
2022-09-14T11:47:02.877Z,2.42857
2022-09-14T11:48:02.909Z,2.21429
2022-09-14T11:49:03.011Z,2.42857
2022-09-14T11:50:02.968Z,2.42857
2022-09-14T11:51:02.994Z,2.35714
2022-09-14T11:52:03.023Z,2.5
2022-09-14T11:53:03.055Z,2.21429
2022-09-14T11:54:03.086Z,2.21429
2022-09-14T11:55:03.120Z,2.42857
2022-09-14T11:56:03.152Z,2.35714
2022-09-14T11:57:03.186Z,2.21429
2022-09-14T11:58:03.221Z,2.42857
2022-09-14T11:59:03.260Z,2.42857
2022-09-14T12:00:03.295Z,2.92857
2022-09-14T12:01:03.326Z,3.21429
2022-09-14T12:02:03.360Z,2.71429
2022-09-14T12:03:03.434Z,2.5
2022-09-14T12:04:03.485Z,2.85714
2022-09-14T12:05:03.450Z,2.5
2022-09-14T12:06:03.471Z,2.85714
2022-09-14T12:07:03.516Z,2.64286
2022-09-14T12:08:03.541Z,2.71429
2022-09-14T12:09:03.575Z,2.35714
2022-09-14T12:10:03.615Z,2.42857
2022-09-14T12:11:03.651Z,2.64286
2022-09-14T12:12:03.682Z,2.5
2022-09-14T12:13:03.719Z,2.5
2022-09-14T12:14:03.751Z,2.71429
2022-09-14T12:15:03.780Z,2.42857
2022-09-14T12:16:03.905Z,2.85714
2022-09-14T12:17:17.332Z,2.42857
2022-09-14T12:18:03.888Z,3
2022-09-14T12:19:03.923Z,2.64286
2022-09-14T12:20:03.952Z,2.92857
2022-09-14T12:21:03.991Z,2.5
2022-09-14T12:22:04.019Z,2.71429
2022-09-14T12:23:04.051Z,2.85714
2022-09-14T12:24:04.090Z,2.5
2022-09-14T12:25:04.188Z,2.14286
2022-09-14T12:26:04.156Z,2.35714
2022-09-14T12:27:04.192Z,2.5
2022-09-14T12:28:04.219Z,2.21429
2022-09-14T12:29:04.256Z,2.5
2022-09-14T12:30:04.292Z,3.14286
2022-09-14T12:31:04.411Z,3.21429
2022-09-14T12:32:04.357Z,3.71429
2022-09-14T12:33:04.400Z,2.92857
2022-09-14T12:34:04.432Z,2.64286
2022-09-14T12:35:04.469Z,2.5
2022-09-14T12:36:04.499Z,2.5
2022-09-14T12:37:08.682Z,2.71429
2022-09-14T12:38:04.552Z,2.5
2022-09-14T12:39:04.582Z,2.14286
2022-09-14T12:40:04.692Z,2.42857
2022-09-14T12:41:04.658Z,2.71429
2022-09-14T12:42:04.692Z,2.71429
2022-09-14T12:43:04.726Z,2.42857
2022-09-14T12:44:04.754Z,2.21429
2022-09-14T12:45:04.790Z,2.42857
2022-09-14T12:46:04.870Z,3.21429
2022-09-14T12:47:04.859Z,2.5
2022-09-14T12:48:04.891Z,2.5
2022-09-14T12:49:04.925Z,2.71429
2022-09-14T12:50:04.960Z,2.14286
2022-09-14T12:51:04.995Z,2.71429
2022-09-14T12:52:05.034Z,2.85714
2022-09-14T12:53:05.070Z,2.42857
2022-09-14T12:54:05.098Z,2.42857
2022-09-14T12:55:05.139Z,2.64286
2022-09-14T12:56:05.177Z,2.5
2022-09-14T12:57:05.206Z,2.42857
2022-09-14T12:58:05.231Z,2.35714
2022-09-14T12:59:05.265Z,2.64286
2022-09-14T13:00:05.365Z,2.85714
2022-09-14T13:01:05.380Z,3.42857
2022-09-14T13:02:05.507Z,2.85714
2022-09-14T13:03:05.407Z,3.42857
2022-09-14T13:04:05.439Z,2.35714
2022-09-14T13:05:05.480Z,2.85714
2022-09-14T13:06:05.517Z,3.21429
2022-09-14T13:07:05.548Z,2.92857
2022-09-14T13:08:05.584Z,3.42857
2022-09-14T13:09:09.455Z,2.64286
2022-09-14T13:10:05.657Z,2.92857
2022-09-14T13:11:05.689Z,2.21429
2022-09-14T13:12:05.720Z,2.5
2022-09-14T13:13:05.769Z,4.14286
2022-09-14T13:14:05.806Z,3.71429
2022-09-14T13:15:05.841Z,2.64286
2022-09-14T13:16:05.929Z,2.92857
2022-09-14T13:17:05.911Z,2.64286
2022-09-14T13:18:05.948Z,2.5
2022-09-14T13:19:09.071Z,2.5
2022-09-14T13:20:06.049Z,2.35714
2022-09-14T13:21:06.056Z,2.14286
2022-09-14T13:22:06.097Z,2
2022-09-14T13:23:06.130Z,2
2022-09-14T13:24:06.167Z,2.5
2022-09-14T13:25:06.200Z,2.64286
2022-09-14T13:26:06.231Z,2.21429
2022-09-14T13:27:06.266Z,2.35714
2022-09-14T13:28:06.300Z,2.21429
2022-09-14T13:29:06.336Z,2.14286
2022-09-14T13:30:06.367Z,1.92857
2022-09-14T13:31:06.453Z,2.42857
2022-09-14T13:32:06.430Z,2.14286
2022-09-14T13:33:06.462Z,2.21429
2022-09-14T13:34:06.495Z,2.21429
2022-09-14T13:35:06.522Z,2.42857
2022-09-14T13:36:06.569Z,2.35714
2022-09-14T13:37:06.610Z,2.35714
2022-09-14T13:38:06.631Z,2.35714
2022-09-14T13:39:06.663Z,2.21429
2022-09-14T13:40:06.716Z,2
2022-09-14T13:41:06.732Z,2.5
2022-09-14T13:42:06.772Z,2.14286
2022-09-14T13:43:06.809Z,2.35714
2022-09-14T13:44:06.849Z,2.42857
2022-09-14T13:45:06.875Z,2.14286
2022-09-14T13:46:06.943Z,2.42857
2022-09-14T13:47:06.949Z,2.64286
2022-09-14T13:48:06.984Z,2.21429
2022-09-14T13:49:07.013Z,2.14286
2022-09-14T13:50:07.071Z,2.42857
2022-09-14T13:51:07.078Z,2.14286
2022-09-14T13:52:07.120Z,2.35714
2022-09-14T13:53:07.159Z,2.21429
2022-09-14T13:54:07.191Z,2.5
2022-09-14T13:55:07.221Z,2.71429
2022-09-14T13:56:07.249Z,2
2022-09-14T13:57:07.309Z,2.21429
2022-09-14T13:58:07.323Z,2.21429
2022-09-14T13:59:07.360Z,2.35714
2022-09-14T14:00:07.386Z,2.42857
2022-09-14T14:01:07.493Z,2
2022-09-14T14:02:07.521Z,1.71429
2022-09-14T14:03:07.503Z,2.35714
2022-09-14T14:04:07.538Z,2.35714
2022-09-14T14:05:07.582Z,2.64286
2022-09-14T14:06:07.605Z,2.21429
2022-09-14T14:07:07.637Z,2.21429
2022-09-14T14:08:07.662Z,2.42857
2022-09-14T14:09:07.705Z,2.35714
2022-09-14T14:10:07.735Z,2.21429
2022-09-14T14:11:07.755Z,2
2022-09-14T14:12:07.784Z,2.21429
2022-09-14T14:13:07.832Z,2.42857
2022-09-14T14:14:07.861Z,2.5
2022-09-14T14:15:07.915Z,2.21429
2022-09-14T14:16:07.972Z,2.5
2022-09-14T14:17:07.967Z,2.21429
2022-09-14T14:18:08.008Z,2.21429
2022-09-14T14:19:08.047Z,1.92857
2022-09-14T14:20:08.080Z,2.21429
2022-09-14T14:21:08.124Z,2
2022-09-14T14:22:08.154Z,2.35714
2022-09-14T14:23:08.197Z,2
2022-09-14T14:24:12.672Z,2.42857
2022-09-14T14:25:13.574Z,2.42857
2022-09-14T14:26:08.288Z,2.5
2022-09-14T14:27:08.327Z,2
2022-09-14T14:28:08.359Z,2.5
2022-09-14T14:29:08.404Z,2.35714
2022-09-14T14:30:08.435Z,2.14286
2022-09-14T14:31:08.812Z,2
2022-09-14T14:32:08.526Z,2.35714
2022-09-14T14:33:08.532Z,2.35714
2022-09-14T14:34:08.573Z,2
2022-09-14T14:35:08.610Z,2
2022-09-14T14:36:08.642Z,1.92857
2022-09-14T14:37:08.682Z,2.35714
2022-09-14T14:38:08.713Z,2
2022-09-14T14:39:08.770Z,2
2022-09-14T14:40:08.839Z,2.14286
2022-09-14T14:41:08.825Z,2.21429
2022-09-14T14:42:08.853Z,2
2022-09-14T14:43:08.889Z,2
2022-09-14T14:44:08.919Z,2.35714
2022-09-14T14:45:08.952Z,1.85714
2022-09-14T14:46:09.086Z,2.21429
2022-09-14T14:47:09.026Z,2
2022-09-14T14:48:09.052Z,2.14286
2022-09-14T14:49:09.085Z,2.21429
2022-09-14T14:50:09.131Z,1.85714
2022-09-14T14:51:09.148Z,2.21429
2022-09-14T14:52:09.180Z,2.21429
2022-09-14T14:53:09.239Z,2.14286
2022-09-14T14:54:09.250Z,2.42857
2022-09-14T14:55:09.295Z,1.92857
2022-09-14T14:56:09.331Z,2
2022-09-14T14:57:09.377Z,2.21429
2022-09-14T14:58:09.403Z,2
2022-09-14T14:59:09.438Z,1.92857
2022-09-14T15:00:09.472Z,2.14286
2022-09-14T15:01:09.543Z,2.35714
2022-09-14T15:02:09.533Z,2.42857
2022-09-14T15:03:09.597Z,2.42857
2022-09-14T15:04:09.605Z,2.64286
2022-09-14T15:05:09.641Z,2.14286
2022-09-14T15:06:09.671Z,2.35714
2022-09-14T15:07:09.705Z,2.14286
2022-09-14T15:08:09.991Z,1.92857
2022-09-14T15:09:09.781Z,1.92857
2022-09-14T15:10:09.817Z,1.92857
2022-09-14T15:11:09.847Z,2.14286
2022-09-14T15:12:09.878Z,1.85714
2022-09-14T15:13:09.912Z,2.14286
2022-09-14T15:14:09.950Z,2.14286
2022-09-14T15:15:09.989Z,1.85714
2022-09-14T15:16:10.136Z,2.35714
2022-09-14T15:17:10.062Z,1.92857
2022-09-14T15:18:10.094Z,2.21429
2022-09-14T15:19:10.123Z,2.14286
2022-09-14T15:20:10.162Z,1.85714
2022-09-14T15:21:10.183Z,1.92857
2022-09-14T15:22:10.226Z,2.21429
2022-09-14T15:23:10.245Z,2.35714
2022-09-14T15:24:10.275Z,2.35714
2022-09-14T15:25:10.317Z,2
2022-09-14T15:26:10.351Z,2
2022-09-14T15:27:10.385Z,2.42857
2022-09-14T15:28:10.419Z,1.71429
2022-09-14T15:29:10.456Z,2.14286
2022-09-14T15:30:10.491Z,1.92857
2022-09-14T15:31:10.528Z,2.35714
2022-09-14T15:32:10.641Z,2
2022-09-14T15:33:10.596Z,2
2022-09-14T15:34:10.626Z,2.21429
2022-09-14T15:35:10.667Z,2.14286
2022-09-14T15:36:10.703Z,2
2022-09-14T15:37:10.746Z,1.92857
2022-09-14T15:38:10.782Z,1.85714
2022-09-14T15:39:10.817Z,2.35714
2022-09-14T15:40:10.943Z,2.14286
2022-09-14T15:41:10.891Z,2
2022-09-14T15:42:10.923Z,1.92857
2022-09-14T15:43:10.959Z,1.92857
2022-09-14T15:44:10.999Z,2
2022-09-14T15:45:11.060Z,1.92857
2022-09-14T15:46:11.156Z,2
2022-09-14T15:47:11.106Z,2.14286
2022-09-14T15:48:11.143Z,2.14286
2022-09-14T15:49:11.173Z,2.21429
2022-09-14T15:50:11.208Z,1.92857
2022-09-14T15:51:11.243Z,1.92857
2022-09-14T15:52:11.278Z,2.14286
2022-09-14T15:53:11.319Z,2.35714
2022-09-14T15:54:11.351Z,2
2022-09-14T15:55:11.386Z,2
2022-09-14T15:56:11.424Z,2.21429
2022-09-14T15:57:11.460Z,2.5
2022-09-14T15:58:11.495Z,2.71429
2022-09-14T15:59:11.528Z,2.64286
2022-09-14T16:00:11.562Z,2.64286
2022-09-14T16:01:11.646Z,3
2022-09-14T16:02:11.684Z,3.21429
2022-09-14T16:03:11.658Z,3
2022-09-14T16:04:12.023Z,3.21429
2022-09-14T16:05:11.732Z,3.14286
2022-09-14T16:06:11.771Z,2.92857
2022-09-14T16:07:11.807Z,3.14286
2022-09-14T16:08:11.841Z,2.92857
2022-09-14T16:09:11.879Z,3.21429
2022-09-14T16:10:11.906Z,3.14286
2022-09-14T16:11:11.936Z,2.85714
2022-09-14T16:12:11.982Z,2.64286
2022-09-14T16:13:12.123Z,2.92857
2022-09-14T16:14:12.046Z,2.92857
2022-09-14T16:15:12.082Z,3
2022-09-14T16:16:12.182Z,2.64286
2022-09-14T16:17:12.150Z,2.85714
2022-09-14T16:18:12.181Z,2.5
2022-09-14T16:19:12.214Z,2.5
2022-09-14T16:20:12.251Z,2.5
2022-09-14T16:21:12.284Z,2.42857
2022-09-14T16:22:12.320Z,2.64286
2022-09-14T16:23:12.509Z,2.42857
2022-09-14T16:24:12.407Z,2.85714
2022-09-14T16:25:12.441Z,2.42857
2022-09-14T16:26:12.480Z,2.64286
2022-09-14T16:27:12.510Z,2.5
2022-09-14T16:28:12.546Z,2.64286
2022-09-14T16:29:12.584Z,2.92857
2022-09-14T16:30:12.619Z,2.21429
2022-09-14T16:31:12.725Z,2.42857
2022-09-14T16:32:12.688Z,2.21429
2022-09-14T16:33:12.725Z,2.35714
2022-09-14T16:34:12.765Z,2.21429
2022-09-14T16:35:12.806Z,2.35714
2022-09-14T16:36:12.837Z,2.64286
2022-09-14T16:37:12.878Z,2.85714
2022-09-14T16:38:12.907Z,2.35714
2022-09-14T16:39:12.938Z,2.35714
2022-09-14T16:40:13.047Z,2.42857
2022-09-14T16:41:13.009Z,2.85714
2022-09-14T16:42:06.429Z,2.42857
2022-09-14T16:44:12.749Z,2.14286
2022-09-14T16:45:12.770Z,2.42857
2022-09-14T16:46:05.685Z,2.35714
2022-09-14T16:46:34.795Z,2.21429
2022-09-14T16:47:34.820Z,2.42857
2022-09-14T16:48:35.833Z,2.5
2022-09-14T16:49:24.995Z,2.42857
2022-09-14T16:50:20.995Z,2.5
2022-09-14T16:51:21.035Z,2.35714
2022-09-14T16:52:21.065Z,2.42857
2022-09-14T16:53:21.097Z,2.71429
2022-09-14T16:54:21.123Z,2.35714
2022-09-14T16:55:21.163Z,2.35714
2022-09-14T16:56:21.202Z,2.21429
2022-09-14T16:56:29.381Z,2.21429
2022-09-14T16:57:29.415Z,2.35714
2022-09-14T16:58:29.469Z,2.71429
2022-09-14T16:59:29.489Z,2.35714
2022-09-14T17:00:18.652Z,2.21429
2022-09-14T17:01:00.124Z,2.42857
2022-09-14T17:02:00.156Z,2.85714
2022-09-14T17:02:45.068Z,2.42857
2022-09-14T17:03:45.056Z,2.64286
2022-09-14T17:04:45.093Z,2.42857
2022-09-14T17:05:45.121Z,2.21429
2022-09-14T17:06:45.160Z,2.42857
2022-09-14T17:07:45.204Z,2.42857
2022-09-14T17:08:45.223Z,2.35714
2022-09-14T17:09:45.261Z,2.5
2022-09-14T17:10:45.294Z,2.14286
2022-09-14T17:11:45.324Z,2.21429
2022-09-14T17:12:44.789Z,2.42857
2022-09-14T17:13:13.707Z,2.5
2022-09-14T17:13:41.609Z,2.64286
2022-09-14T17:14:49.279Z,2
2022-09-14T17:15:38.214Z,2.35714
2022-09-14T17:16:38.367Z,2.35714
2022-09-14T17:17:42.119Z,2.35714
2022-09-14T17:18:35.648Z,2.14286
2022-09-14T17:19:00.891Z,2.35714
2022-09-14T17:19:43.428Z,2.14286
2022-09-14T17:20:39.178Z,2.5
2022-09-14T17:21:39.185Z,2.42857
2022-09-14T17:22:01.339Z,2.42857
2022-09-14T17:23:01.380Z,2.21429
2022-09-14T17:24:01.424Z,2.35714
2022-09-14T17:25:01.467Z,2.5
2022-09-14T17:26:01.487Z,2.14286
2022-09-14T17:27:01.524Z,2.14286
2022-09-14T17:28:01.560Z,2.35714
2022-09-14T17:29:01.596Z,2.35714
2022-09-14T17:30:01.653Z,2.14286
2022-09-14T17:31:01.715Z,2.35714
2022-09-14T17:32:01.735Z,2.42857
2022-09-14T17:33:01.743Z,2.42857
2022-09-14T17:34:01.778Z,2.42857
2022-09-14T17:35:01.822Z,2.71429
2022-09-14T17:36:01.862Z,2.21429
2022-09-14T17:37:01.895Z,2.14286
2022-09-14T17:38:01.932Z,2.35714
2022-09-14T17:39:01.982Z,2.42857
2022-09-14T17:40:02.086Z,2.35714
2022-09-14T17:41:02.046Z,2.64286
2022-09-14T17:42:02.095Z,2.21429
2022-09-14T17:43:02.117Z,2.35714
2022-09-14T17:44:02.154Z,2
2022-09-14T17:45:02.182Z,2.42857
2022-09-14T17:46:02.214Z,2.35714
2022-09-14T17:47:02.319Z,2.14286
2022-09-14T17:48:02.285Z,2.35714
2022-09-14T17:49:02.316Z,2.21429
2022-09-14T17:50:02.350Z,2.5
2022-09-14T17:51:02.379Z,2.35714
2022-09-14T17:52:02.436Z,2.14286
2022-09-14T17:53:02.439Z,2.21429
2022-09-14T17:54:02.475Z,2.21429
2022-09-14T17:55:02.510Z,2.71429
2022-09-14T17:56:02.548Z,2.35714
2022-09-14T17:57:02.585Z,2.42857
2022-09-14T17:58:02.616Z,2.21429
2022-09-14T17:59:02.656Z,2.42857
2022-09-14T18:00:02.694Z,2.21429
2022-09-14T18:01:02.780Z,2.42857
2022-09-14T18:02:02.765Z,2.42857
2022-09-14T18:03:02.792Z,2.14286
2022-09-14T18:04:02.954Z,2.35714
2022-09-14T18:05:02.871Z,2.21429
2022-09-14T18:06:02.906Z,2.64286
2022-09-14T18:07:02.941Z,2.21429
2022-09-14T18:08:02.969Z,2.64286
2022-09-14T18:09:03.010Z,2.5
2022-09-14T18:10:03.045Z,2.21429
2022-09-14T18:11:03.077Z,2.21429
2022-09-14T18:12:03.113Z,2.5
2022-09-14T18:13:03.146Z,2.71429
2022-09-14T18:14:03.179Z,2.14286
2022-09-14T18:15:03.212Z,2.35714
2022-09-14T18:16:03.306Z,2.21429
2022-09-14T18:17:03.285Z,2.42857
2022-09-14T18:18:03.321Z,2.5
2022-09-14T18:19:03.353Z,2.35714
2022-09-14T18:20:03.383Z,2.92857
2022-09-14T18:21:03.412Z,2.5
2022-09-14T18:22:03.454Z,2.42857
2022-09-14T18:23:03.487Z,2.64286
2022-09-14T18:24:03.524Z,2.5
2022-09-14T18:25:03.554Z,2.71429
2022-09-14T18:26:03.594Z,2.42857
2022-09-14T18:27:03.623Z,2.5
2022-09-14T18:28:03.657Z,2.35714
2022-09-14T18:29:03.700Z,2.64286
2022-09-14T18:30:03.732Z,2.42857
2022-09-14T18:31:03.849Z,2.42857
2022-09-14T18:32:03.810Z,2.21429
2022-09-14T18:33:03.838Z,2.5
2022-09-14T18:34:03.872Z,2.5
2022-09-14T18:35:03.899Z,2.42857
2022-09-14T18:36:03.936Z,2.71429
2022-09-14T18:37:03.967Z,2.5
2022-09-14T18:38:03.994Z,2.5
2022-09-14T18:39:04.020Z,2.42857
2022-09-14T18:40:04.115Z,2.5
2022-09-14T18:41:04.081Z,2.64286
2022-09-14T18:42:04.119Z,2.5
2022-09-14T18:43:04.155Z,2.35714
2022-09-14T18:44:04.178Z,2.71429
2022-09-14T18:45:04.215Z,2.85714
2022-09-14T18:46:04.326Z,2.64286
2022-09-14T18:47:04.359Z,2.92857
2022-09-14T18:48:04.329Z,2.85714
2022-09-14T18:49:04.358Z,2.42857
2022-09-14T18:50:04.392Z,2.64286
2022-09-14T18:51:04.435Z,2.71429
2022-09-14T18:52:04.478Z,2.5
2022-09-14T18:53:04.511Z,2.5
2022-09-14T18:54:04.546Z,2.64286
2022-09-14T18:55:04.581Z,2.5
2022-09-14T18:56:04.614Z,2.64286
2022-09-14T18:57:04.635Z,2.85714
2022-09-14T18:58:04.674Z,2.71429
2022-09-14T18:59:04.709Z,3
2022-09-14T19:00:04.738Z,2.71429
2022-09-14T19:01:04.855Z,2.42857
2022-09-14T19:02:04.896Z,2.5
2022-09-14T19:03:04.841Z,2.64286
2022-09-14T19:04:04.881Z,2.85714
2022-09-14T19:05:04.997Z,2.71429
2022-09-14T19:06:04.950Z,2.85714
2022-09-14T19:07:04.969Z,2.64286
2022-09-14T19:08:04.994Z,2.85714
2022-09-14T19:09:05.028Z,2.92857
2022-09-14T19:10:07.672Z,3
2022-09-14T19:11:05.101Z,2.64286
2022-09-14T19:12:05.143Z,2.92857
2022-09-14T19:13:05.175Z,2.92857
2022-09-14T19:14:05.213Z,3
2022-09-14T19:15:05.255Z,2.71429
2022-09-14T19:16:05.379Z,2.85714
2022-09-14T19:17:05.324Z,2.21429
2022-09-14T19:18:05.383Z,2.71429
2022-09-14T19:19:05.398Z,2.71429
2022-09-14T19:20:05.433Z,2.71429
2022-09-14T19:21:06.845Z,2.71429
2022-09-14T19:22:05.507Z,2.71429
2022-09-14T19:23:05.569Z,2.5
2022-09-14T19:24:05.585Z,2.71429
2022-09-14T19:25:05.624Z,3.14286
2022-09-14T19:26:05.652Z,2.71429
2022-09-14T19:27:05.693Z,2.71429
2022-09-14T19:28:05.730Z,2.64286
2022-09-14T19:29:05.764Z,3
2022-09-14T19:30:05.790Z,2.71429
2022-09-14T19:31:05.894Z,2.71429
2022-09-14T19:32:05.862Z,2.71429
2022-09-14T19:33:05.939Z,3.21429
2022-09-14T19:34:05.931Z,2.85714
2022-09-14T19:35:05.967Z,3.14286
2022-09-14T19:36:06.008Z,3
2022-09-14T19:37:06.043Z,3.14286
2022-09-14T19:38:06.081Z,2.92857
2022-09-14T19:39:06.127Z,2.71429